createdAt,value
2018-03-06T00:01:48.395Z,25.33
2018-03-06T00:04:14.570Z,25.70
2018-03-06T00:06:40.832Z,24.23
2018-03-06T00:09:06.977Z,24.20
2018-03-06T00:11:33.896Z,24.70
2018-03-06T00:14:00.066Z,25.98
2018-03-06T00:16:26.976Z,25.15
2018-03-06T00:18:53.140Z,23.40
2018-03-06T00:21:19.325Z,24.70
2018-03-06T00:23:46.272Z,25.98
2018-03-06T00:26:12.438Z,24.57
2018-03-06T00:28:38.947Z,25.27
2018-03-06T00:31:05.174Z,24.98
2018-03-06T00:33:31.336Z,25.30
2018-03-06T00:35:57.851Z,24.65
2018-03-06T00:38:24.071Z,25.62
2018-03-06T00:40:50.460Z,24.97
2018-03-06T00:43:16.656Z,26.83
2018-03-06T00:45:42.819Z,26.62
2018-03-06T00:48:08.999Z,26.00
2018-03-06T00:50:35.156Z,27.35
2018-03-06T00:53:01.329Z,27.58
2018-03-06T00:55:28.450Z,28.23
2018-03-06T00:57:54.605Z,27.67
2018-03-06T01:00:22.260Z,27.33
2018-03-06T01:02:48.429Z,28.35
2018-03-06T01:05:15.351Z,27.87
2018-03-06T01:07:41.508Z,28.52
2018-03-06T01:10:07.697Z,27.98
2018-03-06T01:12:33.855Z,29.33
2018-03-06T01:15:00.058Z,30.85
2018-03-06T01:17:26.216Z,28.92
2018-03-06T01:19:52.411Z,28.90
2018-03-06T01:22:18.629Z,30.25
2018-03-06T01:24:44.791Z,28.52
2018-03-06T01:27:10.955Z,28.85
2018-03-06T01:29:37.163Z,30.08
2018-03-06T01:32:03.323Z,29.33
2018-03-06T01:34:29.473Z,28.83
2018-03-06T01:36:56.413Z,30.80
2018-03-06T01:39:22.588Z,29.90
2018-03-06T01:41:49.556Z,31.15
2018-03-06T01:44:15.748Z,29.35
2018-03-06T01:46:42.640Z,29.73
2018-03-06T01:49:08.809Z,30.17
2018-03-06T01:51:47.584Z,31.17
2018-03-06T01:54:13.780Z,31.25
2018-03-06T01:56:40.692Z,29.85
2018-03-06T01:59:07.224Z,27.52
2018-03-06T02:01:33.380Z,30.67
2018-03-06T02:03:59.535Z,29.40
2018-03-06T02:06:25.715Z,31.05
2018-03-06T02:08:51.864Z,29.92
2018-03-06T02:11:18.086Z,32.47
2018-03-06T02:13:44.243Z,30.05
2018-03-06T02:16:10.403Z,30.77
2018-03-06T02:18:37.341Z,32.15
2018-03-06T02:21:04.265Z,33.22
2018-03-06T02:23:30.432Z,34.03
2018-03-06T02:25:56.600Z,31.42
2018-03-06T02:28:22.768Z,30.80
2018-03-06T02:30:48.959Z,30.90
2018-03-06T02:33:15.176Z,33.00
2018-03-06T02:35:42.100Z,31.37
2018-03-06T02:38:08.276Z,31.62
2018-03-06T02:40:34.503Z,32.00
2018-03-06T02:43:01.050Z,33.40
2018-03-06T02:45:27.960Z,32.08
2018-03-06T02:47:54.136Z,31.33
2018-03-06T02:50:20.364Z,33.67
2018-03-06T02:52:47.285Z,32.47
2018-03-06T02:55:14.241Z,32.35
2018-03-06T02:57:40.421Z,32.22
2018-03-06T03:00:06.631Z,32.63
2018-03-06T03:02:32.799Z,31.98
2018-03-06T03:04:58.985Z,32.13
2018-03-06T03:07:26.203Z,33.50
2018-03-06T03:09:52.367Z,32.58
2018-03-06T03:12:18.536Z,32.03
2018-03-06T03:14:44.999Z,32.05
2018-03-06T03:17:11.154Z,34.58
2018-03-06T03:19:37.335Z,34.17
2018-03-06T03:22:03.520Z,33.15
2018-03-06T03:24:30.448Z,34.28
2018-03-06T03:26:56.655Z,34.97
2018-03-06T03:29:22.856Z,35.63
2018-03-06T03:31:49.062Z,35.25
2018-03-06T03:34:16.022Z,39.55
2018-03-06T03:36:42.192Z,36.50
2018-03-06T03:39:08.392Z,36.30
2018-03-06T03:41:36.439Z,36.67
2018-03-06T03:44:02.947Z,38.45
2018-03-06T03:46:29.153Z,39.00
2018-03-06T03:48:56.072Z,35.83
2018-03-06T03:51:22.228Z,38.28
2018-03-06T03:53:48.414Z,39.05
2018-03-06T03:56:14.608Z,37.45
2018-03-06T03:58:40.772Z,37.70
2018-03-06T04:01:07.031Z,37.90
2018-03-06T04:03:33.371Z,41.53
2018-03-06T04:06:18.192Z,40.45
2018-03-06T04:08:45.080Z,40.88
2018-03-06T04:11:13.571Z,39.75
2018-03-06T04:13:39.769Z,39.55
2018-03-06T04:16:06.674Z,42.00
2018-03-06T04:18:33.064Z,43.05
2018-03-06T04:20:59.240Z,43.60
2018-03-06T04:23:25.402Z,42.40
2018-03-06T04:25:52.616Z,42.15
2018-03-06T04:28:18.815Z,41.67
2018-03-06T04:30:45.706Z,44.38
2018-03-06T04:33:11.876Z,45.67
2018-03-06T04:35:38.797Z,42.33
2018-03-06T04:38:04.983Z,44.90
2018-03-06T04:40:31.152Z,46.47
2018-03-06T04:42:57.307Z,47.38
2018-03-06T04:45:23.905Z,45.00
2018-03-06T04:47:50.069Z,46.67
2018-03-06T04:50:16.233Z,45.12
2018-03-06T04:52:43.156Z,46.65
2018-03-06T04:55:09.314Z,46.45
2018-03-06T04:57:35.510Z,45.95
2018-03-06T05:00:01.732Z,46.65
2018-03-06T05:02:27.924Z,49.90
2018-03-06T05:04:54.813Z,48.15
2018-03-06T05:07:21.008Z,45.55
2018-03-06T05:09:49.404Z,47.38
2018-03-06T05:12:15.626Z,48.20
2018-03-06T05:14:42.523Z,50.78
2018-03-06T05:17:08.742Z,48.85
2018-03-06T05:19:34.925Z,48.08
2018-03-06T05:22:01.898Z,49.13
2018-03-06T05:24:28.093Z,50.12
2018-03-06T05:26:54.428Z,49.47
2018-03-06T05:29:20.577Z,49.35
2018-03-06T05:31:46.747Z,46.85
2018-03-06T05:34:12.912Z,51.55
2018-03-06T05:36:39.115Z,51.85
2018-03-06T05:39:05.276Z,50.58
2018-03-06T05:41:31.428Z,50.75
2018-03-06T05:43:58.568Z,50.53
2018-03-06T05:46:25.125Z,52.67
2018-03-06T05:48:51.304Z,54.10
2018-03-06T05:51:17.489Z,53.35
2018-03-06T05:53:43.672Z,53.85
2018-03-06T05:56:10.601Z,50.58
2018-03-06T05:58:37.504Z,51.33
2018-03-06T06:01:03.709Z,50.17
2018-03-06T06:03:29.908Z,54.42
2018-03-06T06:05:56.832Z,53.13
2018-03-06T06:08:22.997Z,53.67
2018-03-06T06:10:49.198Z,50.83
2018-03-06T06:13:15.358Z,54.78
2018-03-06T06:15:42.282Z,54.45
2018-03-06T06:18:08.450Z,54.63
2018-03-06T06:20:34.604Z,56.72
2018-03-06T06:23:01.491Z,52.75
2018-03-06T06:25:27.647Z,54.63
2018-03-06T06:27:53.819Z,54.63
2018-03-06T06:30:20.205Z,56.30
2018-03-06T06:32:46.368Z,52.58
2018-03-06T06:35:13.284Z,54.03
2018-03-06T06:37:39.480Z,52.95
2018-03-06T06:40:05.839Z,51.83
2018-03-06T06:42:32.026Z,54.97
2018-03-06T06:44:58.948Z,53.20
2018-03-06T06:47:25.671Z,52.30
2018-03-06T06:49:51.836Z,50.80
2018-03-06T06:52:17.997Z,52.58
2018-03-06T06:54:44.948Z,50.00
2018-03-06T06:57:11.112Z,52.15
2018-03-06T06:59:37.255Z,50.95
2018-03-06T07:02:03.444Z,48.63
2018-03-06T07:04:30.346Z,50.22
2018-03-06T07:06:56.505Z,48.30
2018-03-06T07:09:24.491Z,51.25
2018-03-06T07:11:52.409Z,50.08
2018-03-06T07:14:20.422Z,48.50
2018-03-06T07:16:48.375Z,49.17
2018-03-06T07:19:16.291Z,51.13
2018-03-06T07:21:44.538Z,46.67
2018-03-06T07:24:12.667Z,48.10
2018-03-06T07:26:40.600Z,47.30
2018-03-06T07:29:08.540Z,45.22
2018-03-06T07:31:36.523Z,45.65
2018-03-06T07:34:04.431Z,46.95
2018-03-06T07:36:32.362Z,46.65
2018-03-06T07:39:00.270Z,48.63
2018-03-06T07:41:28.187Z,47.60
2018-03-06T07:43:56.121Z,49.53
2018-03-06T07:46:24.051Z,48.65
2018-03-06T07:48:52.304Z,48.00
2018-03-06T07:51:20.227Z,46.60
2018-03-06T07:53:48.162Z,44.87
2018-03-06T07:56:16.170Z,44.17
2018-03-06T07:58:44.345Z,47.30
2018-03-06T08:01:12.265Z,45.10
2018-03-06T08:03:40.180Z,45.17
2018-03-06T08:06:08.097Z,44.60
2018-03-06T08:08:35.983Z,46.90
2018-03-06T08:11:03.940Z,48.80
2018-03-06T08:13:31.841Z,46.53
2018-03-06T08:15:59.759Z,47.37
2018-03-06T08:18:27.692Z,45.47
2018-03-06T08:20:55.612Z,49.53
2018-03-06T08:23:23.571Z,46.80
2018-03-06T08:25:51.484Z,47.90
2018-03-06T08:28:19.456Z,46.40
2018-03-06T08:30:47.443Z,47.47
2018-03-06T08:33:15.339Z,48.73
2018-03-06T08:35:43.291Z,46.40
2018-03-06T08:38:11.231Z,50.40
2018-03-06T08:40:39.147Z,47.17
2018-03-06T08:43:07.050Z,49.93
2018-03-06T08:45:35.018Z,48.07
2018-03-06T08:48:02.920Z,47.03
2018-03-06T08:50:31.127Z,46.87
2018-03-06T08:52:59.046Z,47.90
2018-03-06T08:55:27.303Z,47.07
2018-03-06T08:57:55.221Z,47.83
2018-03-06T09:00:23.151Z,47.40
2018-03-06T09:02:51.091Z,46.97
2018-03-06T09:05:19.030Z,48.70
2018-03-06T09:07:46.943Z,48.07
2018-03-06T09:10:14.857Z,49.00
2018-03-06T09:12:42.747Z,46.83
2018-03-06T09:15:10.659Z,48.40
2018-03-06T09:17:38.591Z,51.47
2018-03-06T09:20:06.496Z,48.60
2018-03-06T09:22:34.439Z,48.10
2018-03-06T09:25:02.378Z,50.57
2018-03-06T09:27:30.295Z,46.80
2018-03-06T09:29:58.204Z,48.60
2018-03-06T09:32:26.103Z,51.90
2018-03-06T09:34:54.006Z,50.93
2018-03-06T09:37:21.952Z,51.30
2018-03-06T09:39:49.855Z,51.83
2018-03-06T09:42:17.768Z,47.53
2018-03-06T09:44:46.004Z,50.80
2018-03-06T09:47:13.928Z,46.63
2018-03-06T09:49:41.827Z,49.57
2018-03-06T09:52:10.350Z,49.60
2018-03-06T09:54:38.288Z,48.40
2018-03-06T09:57:06.195Z,48.13
2018-03-06T09:59:34.098Z,49.90
2018-03-06T10:02:02.017Z,52.60
2018-03-06T10:04:29.929Z,47.77
2018-03-06T10:06:57.850Z,45.80
2018-03-06T10:09:25.762Z,50.03
2018-03-06T10:11:53.692Z,46.33
2018-03-06T10:14:21.614Z,46.67
2018-03-06T10:16:49.539Z,49.33
2018-03-06T10:19:17.752Z,46.60
2018-03-06T10:21:45.651Z,49.27
2018-03-06T10:24:13.586Z,48.80
2018-03-06T10:26:41.511Z,47.10
2018-03-06T10:29:09.414Z,46.87
2018-03-06T10:31:37.332Z,45.70
2018-03-06T10:34:05.232Z,47.60
2018-03-06T10:36:33.188Z,48.27
2018-03-06T10:39:01.068Z,44.20
2018-03-06T10:41:28.999Z,45.07
2018-03-06T10:43:56.915Z,45.97
2018-03-06T10:46:24.828Z,46.43
2018-03-06T10:48:52.723Z,48.47
2018-03-06T10:51:20.643Z,48.60
2018-03-06T10:53:48.863Z,50.07
2018-03-06T10:56:16.759Z,50.13
2018-03-06T10:58:44.780Z,51.90
2018-03-06T11:01:18.707Z,53.67
2018-03-06T11:03:46.802Z,48.37
2018-03-06T11:06:14.708Z,45.90
2018-03-06T11:08:42.611Z,48.93
2018-03-06T11:11:10.623Z,43.03
2018-03-06T11:13:38.522Z,44.43
2018-03-06T11:16:06.495Z,42.53
2018-03-06T11:18:34.450Z,44.07
2018-03-06T11:21:02.324Z,42.73
2018-03-06T11:23:30.600Z,44.07
2018-03-06T11:25:58.512Z,42.50
2018-03-06T11:28:26.491Z,42.10
2018-03-06T11:30:54.444Z,44.33
2018-03-06T11:33:22.431Z,42.17
2018-03-06T11:35:50.427Z,43.37
2018-03-06T11:38:18.339Z,46.07
2018-03-06T11:40:46.260Z,46.17
2018-03-06T11:43:14.155Z,44.63
2018-03-06T11:45:42.111Z,44.10
2018-03-06T11:48:10.020Z,44.87
2018-03-06T11:50:37.918Z,44.57
2018-03-06T11:53:05.826Z,43.97
2018-03-06T11:55:33.836Z,40.30
2018-03-06T11:58:01.724Z,41.93
2018-03-06T12:00:29.642Z,40.63
2018-03-06T12:02:57.571Z,42.40
2018-03-06T12:05:25.496Z,41.57
2018-03-06T12:07:53.518Z,44.20
2018-03-06T12:10:21.439Z,43.47
2018-03-06T12:12:49.540Z,44.30
2018-03-06T12:15:17.459Z,42.70
2018-03-06T12:17:45.344Z,44.70
2018-03-06T12:20:13.250Z,44.33
2018-03-06T12:22:41.163Z,47.53
2018-03-06T12:25:09.079Z,45.67
2018-03-06T12:27:36.980Z,44.60
2018-03-06T12:30:04.930Z,44.00
2018-03-06T12:32:32.811Z,46.27
2018-03-06T12:35:00.707Z,42.27
2018-03-06T12:37:28.635Z,42.73
2018-03-06T12:39:56.543Z,47.60
2018-03-06T12:42:24.443Z,47.43
2018-03-06T12:44:52.364Z,49.07
2018-03-06T12:47:20.279Z,46.77
2018-03-06T12:49:55.275Z,47.20
2018-03-06T12:52:23.179Z,48.17
2018-03-06T12:54:49.388Z,47.57
2018-03-06T12:57:15.841Z,47.67
2018-03-06T12:59:42.720Z,45.67
2018-03-06T13:02:08.918Z,45.87
2018-03-06T13:04:36.008Z,46.00
2018-03-06T13:07:02.174Z,47.37
2018-03-06T13:09:29.803Z,46.10
2018-03-06T13:11:55.984Z,47.10
2018-03-06T13:14:22.135Z,44.97
2018-03-06T13:16:49.064Z,42.20
2018-03-06T13:19:16.722Z,42.03
2018-03-06T13:21:44.631Z,39.53
2018-03-06T13:24:10.791Z,39.87
2018-03-06T13:26:38.071Z,42.77
2018-03-06T13:29:04.250Z,41.70
2018-03-06T13:31:31.131Z,45.10
2018-03-06T13:33:57.332Z,44.10
2018-03-06T13:36:25.260Z,44.80
2018-03-06T13:38:53.179Z,44.70
2018-03-06T13:41:21.071Z,44.93
2018-03-06T13:43:49.004Z,43.20
2018-03-06T13:46:16.923Z,42.27
2018-03-06T13:48:44.829Z,43.60
2018-03-06T13:51:12.752Z,42.13
2018-03-06T13:53:40.714Z,43.27
2018-03-06T13:56:08.602Z,44.27
2018-03-06T13:58:36.551Z,43.47
2018-03-06T14:01:04.463Z,41.73
2018-03-06T14:03:32.364Z,42.40
2018-03-06T14:06:00.520Z,43.77
2018-03-06T14:08:28.415Z,40.83
2018-03-06T14:10:56.320Z,42.53
2018-03-06T14:13:24.239Z,49.60
2018-03-06T14:15:52.155Z,49.77
2018-03-06T14:18:20.072Z,48.00
2018-03-06T14:20:48.003Z,51.33
2018-03-06T14:23:15.912Z,48.50
2018-03-06T14:25:43.821Z,48.60
2018-03-06T14:28:11.783Z,45.80
2018-03-06T14:30:39.703Z,50.00
2018-03-06T14:33:07.599Z,49.83
2018-03-06T14:35:35.518Z,51.83
2018-03-06T14:38:03.428Z,48.97
2018-03-06T14:40:31.387Z,49.53
2018-03-06T14:42:59.315Z,45.20
2018-03-06T14:45:27.263Z,49.03
2018-03-06T14:47:55.190Z,51.97
2018-03-06T14:50:23.131Z,49.90
2018-03-06T14:52:51.032Z,52.20
2018-03-06T14:55:18.934Z,48.73
2018-03-06T14:57:46.875Z,48.77
2018-03-06T15:00:14.811Z,48.53
2018-03-06T15:02:42.713Z,47.90
2018-03-06T15:05:10.782Z,47.57
2018-03-06T15:07:38.692Z,50.60
2018-03-06T15:10:06.647Z,49.07
2018-03-06T15:12:34.558Z,45.70
2018-03-06T15:15:02.495Z,51.57
2018-03-06T15:17:32.806Z,49.40
2018-03-06T15:20:00.740Z,47.13
2018-03-06T15:22:28.659Z,49.13
2018-03-06T15:24:56.927Z,48.93
2018-03-06T15:27:24.820Z,45.27
2018-03-06T15:29:52.735Z,47.50
2018-03-06T15:32:20.663Z,49.00
2018-03-06T15:34:48.613Z,50.17
2018-03-06T15:37:16.535Z,46.93
2018-03-06T15:39:44.452Z,49.53
2018-03-06T15:42:12.379Z,47.73
2018-03-06T15:44:40.266Z,49.40
2018-03-06T15:47:08.393Z,46.97
2018-03-06T15:49:36.293Z,49.20
2018-03-06T15:52:04.195Z,45.50
2018-03-06T15:54:32.137Z,49.87
2018-03-06T15:57:00.016Z,48.27
2018-03-06T15:59:27.926Z,47.07
2018-03-06T16:01:56.640Z,49.33
2018-03-06T16:04:24.542Z,48.80
2018-03-06T16:06:52.454Z,47.77
2018-03-06T16:09:20.370Z,48.90
2018-03-06T16:11:48.264Z,50.60
2018-03-06T16:14:16.156Z,50.13
2018-03-06T16:16:44.074Z,48.57
2018-03-06T16:19:11.989Z,45.63
2018-03-06T16:21:39.911Z,49.47
2018-03-06T16:24:07.919Z,52.43
2018-03-06T16:26:35.810Z,49.63
2018-03-06T16:29:03.703Z,48.80
2018-03-06T16:31:31.602Z,49.73
2018-03-06T16:33:59.498Z,50.90
2018-03-06T16:36:27.423Z,50.20
2018-03-06T16:38:55.356Z,48.90
2018-03-06T16:41:23.283Z,49.27
2018-03-06T16:43:51.175Z,51.57
2018-03-06T16:46:19.094Z,52.17
2018-03-06T16:48:47.039Z,50.20
2018-03-06T16:51:14.923Z,48.47
2018-03-06T16:53:42.815Z,49.03
2018-03-06T16:56:10.711Z,48.93
2018-03-06T16:58:38.611Z,49.87
2018-03-06T17:01:06.532Z,50.87
2018-03-06T17:03:34.792Z,53.47
2018-03-06T17:06:02.688Z,52.13
2018-03-06T17:08:30.711Z,54.20
2018-03-06T17:10:58.612Z,55.17
2018-03-06T17:13:26.544Z,57.17
2018-03-06T17:15:54.435Z,57.20
2018-03-06T17:18:22.324Z,55.60
2018-03-06T17:20:50.212Z,57.07
2018-03-06T17:23:18.149Z,64.73
2018-03-06T17:25:46.024Z,61.93
2018-03-06T17:28:13.984Z,60.33
2018-03-06T17:30:41.903Z,58.83
2018-03-06T17:33:09.827Z,62.13
2018-03-06T17:35:37.715Z,61.60
2018-03-06T17:38:05.611Z,60.23
2018-03-06T17:40:33.508Z,61.67
2018-03-06T17:43:01.397Z,57.47
2018-03-06T17:45:29.510Z,61.00
2018-03-06T17:47:57.403Z,62.47
2018-03-06T17:50:25.307Z,67.93
2018-03-06T17:52:53.227Z,62.53
2018-03-06T17:55:21.119Z,59.43
2018-03-06T17:57:49.023Z,59.50
2018-03-06T18:00:17.227Z,61.30
2018-03-06T18:02:45.123Z,63.90
2018-03-06T18:05:13.440Z,64.93
2018-03-06T18:07:41.367Z,61.43
2018-03-06T18:10:09.277Z,65.73
2018-03-06T18:12:37.342Z,62.37
2018-03-06T18:15:05.256Z,61.53
2018-03-06T18:17:33.167Z,62.20
2018-03-06T18:20:01.088Z,66.40
2018-03-06T18:22:29.025Z,62.43
2018-03-06T18:24:56.942Z,63.60
2018-03-06T18:27:24.967Z,63.40
2018-03-06T18:29:52.967Z,68.07
2018-03-06T18:32:20.877Z,65.03
2018-03-06T18:34:48.900Z,62.87
2018-03-06T18:37:16.801Z,64.47
2018-03-06T18:39:44.735Z,61.20
2018-03-06T18:42:12.672Z,64.37
2018-03-06T18:44:40.546Z,67.40
2018-03-06T18:47:08.678Z,65.70
2018-03-06T18:49:36.584Z,65.27
2018-03-06T18:52:04.507Z,64.43
2018-03-06T18:54:32.431Z,63.30
2018-03-06T18:57:00.379Z,63.77
2018-03-06T18:59:28.300Z,65.40
2018-03-06T19:04:57.801Z,66.40
2018-03-06T19:07:26.070Z,64.17
2018-03-06T19:09:54.000Z,63.00
2018-03-06T19:12:21.908Z,61.50
2018-03-06T19:14:50.158Z,61.80
2018-03-06T19:17:18.122Z,62.17
2018-03-06T19:19:46.031Z,65.27
2018-03-06T19:22:13.975Z,64.20
2018-03-06T19:24:41.883Z,63.03
2018-03-06T19:27:09.808Z,62.90
2018-03-06T19:29:37.963Z,65.20
2018-03-06T19:32:05.876Z,63.27
2018-03-06T19:34:33.799Z,63.20
2018-03-06T19:37:01.748Z,59.60
2018-03-06T19:39:29.639Z,60.37
2018-03-06T19:41:57.566Z,61.30
2018-03-06T19:44:25.747Z,64.70
2018-03-06T19:46:53.645Z,60.37
2018-03-06T19:49:21.560Z,63.60
2018-03-06T19:51:49.490Z,61.70
2018-03-06T19:54:17.443Z,63.83
2018-03-06T19:56:45.343Z,63.20
2018-03-06T19:59:13.259Z,61.50
2018-03-06T20:01:41.183Z,62.80
2018-03-06T20:04:07.380Z,62.20
2018-03-06T20:06:35.332Z,60.60
2018-03-06T20:09:01.849Z,60.10
2018-03-06T20:11:29.779Z,57.90
2018-03-06T20:13:55.937Z,60.87
2018-03-06T20:16:23.820Z,59.77
2018-03-06T20:18:55.992Z,60.30
2018-03-06T20:21:22.936Z,63.17
2018-03-06T20:23:50.355Z,61.17
2018-03-06T20:26:16.507Z,58.53
2018-03-06T20:28:42.702Z,58.80
2018-03-06T20:31:16.784Z,60.47
2018-03-06T20:33:43.699Z,56.25
2018-03-06T20:36:09.937Z,59.37
2018-03-06T20:38:42.433Z,59.37
2018-03-06T20:41:08.612Z,60.20
2018-03-06T20:43:34.852Z,57.77
2018-03-06T20:46:08.168Z,60.63
2018-03-06T20:48:34.348Z,60.90
2018-03-06T20:51:00.527Z,62.47
2018-03-06T20:53:32.773Z,60.50
2018-03-06T20:55:58.974Z,58.13
2018-03-06T20:58:26.167Z,61.10
2018-03-06T21:00:52.341Z,57.30
2018-03-06T21:03:18.571Z,56.90
2018-03-06T21:05:44.768Z,59.60
2018-03-06T21:08:10.920Z,59.13
2018-03-06T21:10:37.412Z,56.40
2018-03-06T21:13:04.350Z,58.33
2018-03-06T21:15:30.564Z,60.03
2018-03-06T21:17:56.751Z,60.87
2018-03-06T21:20:22.932Z,59.10
2018-03-06T21:22:49.125Z,60.60
2018-03-06T21:25:15.292Z,61.78
2018-03-06T21:27:41.480Z,60.45
2018-03-06T21:30:07.658Z,57.90
2018-03-06T21:32:34.192Z,60.30
2018-03-06T21:35:00.363Z,60.08
2018-03-06T21:37:26.532Z,61.67
2018-03-06T21:39:53.444Z,60.10
2018-03-06T21:42:20.362Z,58.50
2018-03-06T21:44:46.536Z,61.67
2018-03-06T21:47:12.688Z,67.53
2018-03-06T21:49:38.881Z,63.58
2018-03-06T21:52:05.056Z,63.77
2018-03-06T21:54:31.229Z,61.37
2018-03-06T21:56:57.420Z,64.22
2018-03-06T21:59:25.328Z,60.47
2018-03-06T22:01:53.207Z,64.70
2018-03-06T22:04:19.649Z,67.13
2018-03-06T22:06:46.596Z,64.47
2018-03-06T22:09:12.780Z,63.37
2018-03-06T22:11:39.330Z,62.95
2018-03-06T22:14:06.227Z,62.70
2018-03-06T22:16:32.408Z,66.37
2018-03-06T22:18:58.589Z,63.90
2018-03-06T22:21:24.768Z,64.97
2018-03-06T22:23:51.685Z,66.63
2018-03-06T22:26:17.898Z,65.60
2018-03-06T22:28:44.073Z,65.67
2018-03-06T22:31:10.231Z,64.57
2018-03-06T22:33:36.423Z,65.37
2018-03-06T22:36:02.596Z,66.50
2018-03-06T22:38:28.786Z,64.53
2018-03-06T22:40:55.303Z,66.20
2018-03-06T22:43:21.485Z,64.77
2018-03-06T22:45:48.401Z,67.87
2018-03-06T22:48:14.604Z,64.25
2018-03-06T22:50:40.776Z,66.93
2018-03-06T22:53:06.932Z,67.57
2018-03-06T22:55:34.147Z,63.08
2018-03-06T22:58:00.329Z,68.95
2018-03-06T23:00:27.251Z,64.47
2018-03-06T23:02:53.408Z,64.30
2018-03-06T23:05:20.322Z,67.00
2018-03-06T23:07:46.512Z,66.12
2018-03-06T23:10:13.472Z,67.25
2018-03-06T23:12:39.973Z,64.93
2018-03-06T23:15:06.160Z,68.82
2018-03-06T23:17:32.327Z,67.65
2018-03-06T23:19:59.245Z,73.50
2018-03-06T23:22:25.694Z,71.55
2018-03-06T23:24:51.876Z,68.20
2018-03-06T23:27:18.824Z,68.28
2018-03-06T23:29:45.744Z,72.35
2018-03-06T23:32:13.430Z,71.93
2018-03-06T23:34:40.366Z,69.90
2018-03-06T23:37:06.580Z,74.12
2018-03-06T23:39:33.538Z,71.18
2018-03-06T23:41:59.737Z,71.15
2018-03-06T23:44:25.926Z,74.28
2018-03-06T23:46:52.875Z,74.25
2018-03-06T23:49:19.103Z,74.53
2018-03-06T23:51:45.304Z,73.82
2018-03-06T23:54:11.468Z,70.32
2018-03-06T23:56:37.656Z,69.35
2018-03-06T23:59:03.840Z,76.03
